sensor_id;sensor_type;location;lat;lon;timestamp;P1;durP1;ratioP1;P2;durP2;ratioP2
45408;SDS011;31162;51.076;3.784;2023-04-25T00:01:33;21.23;;;7.05;;
45408;SDS011;31162;51.076;3.784;2023-04-25T00:04:01;17.17;;;6.75;;
45408;SDS011;31162;51.076;3.784;2023-04-25T00:06:27;20.65;;;6.80;;
45408;SDS011;31162;51.076;3.784;2023-04-25T00:08:55;19.55;;;6.88;;
45408;SDS011;31162;51.076;3.784;2023-04-25T00:11:22;17.90;;;6.80;;
45408;SDS011;31162;51.076;3.784;2023-04-25T00:13:48;20.15;;;6.57;;
45408;SDS011;31162;51.076;3.784;2023-04-25T00:16:15;17.33;;;7.55;;
45408;SDS011;31162;51.076;3.784;2023-04-25T00:18:42;19.27;;;7.43;;
45408;SDS011;31162;51.076;3.784;2023-04-25T00:21:07;17.35;;;6.70;;
45408;SDS011;31162;51.076;3.784;2023-04-25T00:23:33;23.40;;;8.45;;
45408;SDS011;31162;51.076;3.784;2023-04-25T00:26:01;21.45;;;7.97;;
45408;SDS011;31162;51.076;3.784;2023-04-25T00:28:27;16.70;;;6.25;;
45408;SDS011;31162;51.076;3.784;2023-04-25T00:30:53;15.55;;;5.78;;
45408;SDS011;31162;51.076;3.784;2023-04-25T00:33:19;14.63;;;5.28;;
45408;SDS011;31162;51.076;3.784;2023-04-25T00:35:45;15.52;;;5.57;;
45408;SDS011;31162;51.076;3.784;2023-04-25T00:38:10;19.27;;;5.07;;
45408;SDS011;31162;51.076;3.784;2023-04-25T00:40:36;15.93;;;4.75;;
45408;SDS011;31162;51.076;3.784;2023-04-25T00:43:02;19.08;;;4.95;;
45408;SDS011;31162;51.076;3.784;2023-04-25T00:45:29;12.73;;;4.72;;
45408;SDS011;31162;51.076;3.784;2023-04-25T00:47:55;14.75;;;4.75;;
45408;SDS011;31162;51.076;3.784;2023-04-25T00:50:21;12.55;;;4.40;;
45408;SDS011;31162;51.076;3.784;2023-04-25T00:52:50;13.85;;;4.57;;
45408;SDS011;31162;51.076;3.784;2023-04-25T00:55:16;17.30;;;5.00;;
45408;SDS011;31162;51.076;3.784;2023-04-25T00:57:42;19.02;;;5.28;;
45408;SDS011;31162;51.076;3.784;2023-04-25T01:00:08;13.75;;;4.35;;
45408;SDS011;31162;51.076;3.784;2023-04-25T01:02:36;21.48;;;4.95;;
45408;SDS011;31162;51.076;3.784;2023-04-25T01:05:02;21.27;;;5.10;;
45408;SDS011;31162;51.076;3.784;2023-04-25T01:07:29;20.70;;;5.40;;
45408;SDS011;31162;51.076;3.784;2023-04-25T01:09:55;14.15;;;4.78;;
45408;SDS011;31162;51.076;3.784;2023-04-25T01:12:21;16.50;;;5.43;;
45408;SDS011;31162;51.076;3.784;2023-04-25T01:14:46;14.40;;;4.70;;
45408;SDS011;31162;51.076;3.784;2023-04-25T01:17:12;12.90;;;5.07;;
45408;SDS011;31162;51.076;3.784;2023-04-25T01:19:39;16.45;;;4.72;;
45408;SDS011;31162;51.076;3.784;2023-04-25T01:22:05;18.42;;;4.93;;
45408;SDS011;31162;51.076;3.784;2023-04-25T01:24:31;18.10;;;5.60;;
45408;SDS011;31162;51.076;3.784;2023-04-25T01:26:58;14.55;;;5.57;;
45408;SDS011;31162;51.076;3.784;2023-04-25T01:29:25;17.27;;;6.15;;
45408;SDS011;31162;51.076;3.784;2023-04-25T01:31:52;18.10;;;5.75;;
45408;SDS011;31162;51.076;3.784;2023-04-25T01:34:18;16.30;;;5.95;;
45408;SDS011;31162;51.076;3.784;2023-04-25T01:36:44;13.68;;;5.28;;
45408;SDS011;31162;51.076;3.784;2023-04-25T01:39:11;19.70;;;6.78;;
45408;SDS011;31162;51.076;3.784;2023-04-25T01:41:37;19.15;;;6.05;;
45408;SDS011;31162;51.076;3.784;2023-04-25T01:44:02;16.80;;;6.00;;
45408;SDS011;31162;51.076;3.784;2023-04-25T01:46:28;16.65;;;5.70;;
45408;SDS011;31162;51.076;3.784;2023-04-25T01:48:54;18.90;;;5.53;;
45408;SDS011;31162;51.076;3.784;2023-04-25T01:51:20;15.48;;;5.85;;
45408;SDS011;31162;51.076;3.784;2023-04-25T01:53:45;20.88;;;5.70;;
45408;SDS011;31162;51.076;3.784;2023-04-25T01:56:11;19.17;;;6.47;;
45408;SDS011;31162;51.076;3.784;2023-04-25T01:58:37;15.50;;;5.65;;
45408;SDS011;31162;51.076;3.784;2023-04-25T02:01:02;18.00;;;5.03;;
45408;SDS011;31162;51.076;3.784;2023-04-25T02:03:28;17.95;;;5.30;;
45408;SDS011;31162;51.076;3.784;2023-04-25T02:05:56;22.23;;;6.30;;
45408;SDS011;31162;51.076;3.784;2023-04-25T02:08:21;18.55;;;7.55;;
45408;SDS011;31162;51.076;3.784;2023-04-25T02:10:47;32.22;;;17.00;;
45408;SDS011;31162;51.076;3.784;2023-04-25T02:13:13;30.70;;;14.40;;
45408;SDS011;31162;51.076;3.784;2023-04-25T02:15:38;27.40;;;12.27;;
45408;SDS011;31162;51.076;3.784;2023-04-25T02:18:04;25.52;;;11.52;;
45408;SDS011;31162;51.076;3.784;2023-04-25T02:20:31;20.52;;;9.52;;
45408;SDS011;31162;51.076;3.784;2023-04-25T02:22:57;26.23;;;10.65;;
45408;SDS011;31162;51.076;3.784;2023-04-25T02:25:23;26.20;;;13.02;;
45408;SDS011;31162;51.076;3.784;2023-04-25T02:27:48;28.58;;;14.48;;
45408;SDS011;31162;51.076;3.784;2023-04-25T02:30:15;31.40;;;15.68;;
45408;SDS011;31162;51.076;3.784;2023-04-25T02:32:41;30.27;;;14.38;;
45408;SDS011;31162;51.076;3.784;2023-04-25T02:35:07;33.13;;;15.82;;
45408;SDS011;31162;51.076;3.784;2023-04-25T02:37:33;30.33;;;16.70;;
45408;SDS011;31162;51.076;3.784;2023-04-25T02:40:00;29.73;;;16.15;;
45408;SDS011;31162;51.076;3.784;2023-04-25T02:42:26;32.30;;;17.02;;
45408;SDS011;31162;51.076;3.784;2023-04-25T02:44:54;31.40;;;17.88;;
45408;SDS011;31162;51.076;3.784;2023-04-25T02:47:20;37.13;;;19.20;;
45408;SDS011;31162;51.076;3.784;2023-04-25T02:49:46;37.85;;;21.02;;
45408;SDS011;31162;51.076;3.784;2023-04-25T02:52:11;32.88;;;20.25;;
45408;SDS011;31162;51.076;3.784;2023-04-25T02:54:37;36.13;;;20.35;;
45408;SDS011;31162;51.076;3.784;2023-04-25T02:57:04;34.97;;;19.05;;
45408;SDS011;31162;51.076;3.784;2023-04-25T02:59:30;36.35;;;20.77;;
45408;SDS011;31162;51.076;3.784;2023-04-25T03:01:56;36.55;;;20.55;;
45408;SDS011;31162;51.076;3.784;2023-04-25T03:04:21;37.78;;;21.13;;
45408;SDS011;31162;51.076;3.784;2023-04-25T03:06:49;35.83;;;20.42;;
45408;SDS011;31162;51.076;3.784;2023-04-25T03:09:18;27.80;;;15.60;;
45408;SDS011;31162;51.076;3.784;2023-04-25T03:11:44;20.80;;;8.90;;
45408;SDS011;31162;51.076;3.784;2023-04-25T03:14:11;16.55;;;5.53;;
45408;SDS011;31162;51.076;3.784;2023-04-25T03:16:37;15.13;;;5.25;;
45408;SDS011;31162;51.076;3.784;2023-04-25T03:19:03;11.55;;;4.63;;
45408;SDS011;31162;51.076;3.784;2023-04-25T03:21:29;10.90;;;4.60;;
45408;SDS011;31162;51.076;3.784;2023-04-25T03:24:00;16.67;;;5.97;;
45408;SDS011;31162;51.076;3.784;2023-04-25T03:26:29;20.05;;;5.60;;
45408;SDS011;31162;51.076;3.784;2023-04-25T03:28:55;12.18;;;4.53;;
45408;SDS011;31162;51.076;3.784;2023-04-25T03:31:23;15.68;;;4.55;;
45408;SDS011;31162;51.076;3.784;2023-04-25T03:33:48;11.88;;;4.72;;
45408;SDS011;31162;51.076;3.784;2023-04-25T03:36:14;11.07;;;3.88;;
45408;SDS011;31162;51.076;3.784;2023-04-25T03:38:40;15.25;;;4.32;;
45408;SDS011;31162;51.076;3.784;2023-04-25T03:41:06;12.13;;;4.07;;
45408;SDS011;31162;51.076;3.784;2023-04-25T03:43:32;13.98;;;3.97;;
45408;SDS011;31162;51.076;3.784;2023-04-25T03:45:58;8.05;;;4.07;;
45408;SDS011;31162;51.076;3.784;2023-04-25T03:48:24;12.40;;;3.83;;
45408;SDS011;31162;51.076;3.784;2023-04-25T03:50:51;12.48;;;4.47;;
45408;SDS011;31162;51.076;3.784;2023-04-25T03:53:17;11.23;;;3.97;;
45408;SDS011;31162;51.076;3.784;2023-04-25T03:55:43;11.30;;;3.80;;
45408;SDS011;31162;51.076;3.784;2023-04-25T03:58:08;17.27;;;4.28;;
45408;SDS011;31162;51.076;3.784;2023-04-25T04:00:34;15.98;;;4.40;;
45408;SDS011;31162;51.076;3.784;2023-04-25T04:03:00;9.65;;;3.80;;
45408;SDS011;31162;51.076;3.784;2023-04-25T04:05:26;12.82;;;4.22;;
45408;SDS011;31162;51.076;3.784;2023-04-25T04:07:52;25.30;;;14.40;;
45408;SDS011;31162;51.076;3.784;2023-04-25T04:10:18;19.20;;;11.32;;
45408;SDS011;31162;51.076;3.784;2023-04-25T04:12:44;11.10;;;3.90;;
45408;SDS011;31162;51.076;3.784;2023-04-25T04:15:10;15.20;;;4.80;;
45408;SDS011;31162;51.076;3.784;2023-04-25T04:17:36;15.32;;;7.20;;
45408;SDS011;31162;51.076;3.784;2023-04-25T04:20:01;10.77;;;3.80;;
45408;SDS011;31162;51.076;3.784;2023-04-25T04:22:28;11.73;;;3.67;;
45408;SDS011;31162;51.076;3.784;2023-04-25T04:24:54;13.20;;;4.00;;
45408;SDS011;31162;51.076;3.784;2023-04-25T04:27:21;10.05;;;4.00;;
45408;SDS011;31162;51.076;3.784;2023-04-25T04:29:49;10.43;;;4.07;;
45408;SDS011;31162;51.076;3.784;2023-04-25T04:32:19;13.02;;;4.57;;
45408;SDS011;31162;51.076;3.784;2023-04-25T04:34:45;10.70;;;4.03;;
45408;SDS011;31162;51.076;3.784;2023-04-25T04:37:12;17.45;;;4.43;;
45408;SDS011;31162;51.076;3.784;2023-04-25T04:39:38;34.78;;;19.67;;
45408;SDS011;31162;51.076;3.784;2023-04-25T04:42:03;45.90;;;33.28;;
45408;SDS011;31162;51.076;3.784;2023-04-25T04:44:30;12.20;;;4.50;;
45408;SDS011;31162;51.076;3.784;2023-04-25T04:46:59;11.20;;;4.05;;
45408;SDS011;31162;51.076;3.784;2023-04-25T04:49:25;9.95;;;3.55;;
45408;SDS011;31162;51.076;3.784;2023-04-25T04:51:51;44.35;;;32.50;;
45408;SDS011;31162;51.076;3.784;2023-04-25T04:54:17;13.50;;;6.85;;
45408;SDS011;31162;51.076;3.784;2023-04-25T04:56:43;12.80;;;4.22;;
45408;SDS011;31162;51.076;3.784;2023-04-25T04:59:08;10.48;;;3.85;;
45408;SDS011;31162;51.076;3.784;2023-04-25T05:01:34;12.32;;;4.00;;
45408;SDS011;31162;51.076;3.784;2023-04-25T05:04:00;13.32;;;3.70;;
45408;SDS011;31162;51.076;3.784;2023-04-25T05:06:27;13.48;;;4.40;;
45408;SDS011;31162;51.076;3.784;2023-04-25T05:08:56;14.30;;;4.20;;
45408;SDS011;31162;51.076;3.784;2023-04-25T05:11:23;13.48;;;4.65;;
45408;SDS011;31162;51.076;3.784;2023-04-25T05:13:51;13.27;;;4.25;;
45408;SDS011;31162;51.076;3.784;2023-04-25T05:16:16;14.68;;;4.70;;
45408;SDS011;31162;51.076;3.784;2023-04-25T05:18:42;114.50;;;69.03;;
45408;SDS011;31162;51.076;3.784;2023-04-25T05:21:08;15.27;;;6.75;;
45408;SDS011;31162;51.076;3.784;2023-04-25T05:23:34;11.93;;;5.18;;
45408;SDS011;31162;51.076;3.784;2023-04-25T05:25:59;15.48;;;5.03;;
45408;SDS011;31162;51.076;3.784;2023-04-25T05:28:25;15.00;;;4.78;;
45408;SDS011;31162;51.076;3.784;2023-04-25T05:30:50;15.68;;;4.47;;
45408;SDS011;31162;51.076;3.784;2023-04-25T05:33:17;11.38;;;4.35;;
45408;SDS011;31162;51.076;3.784;2023-04-25T05:35:45;12.20;;;4.15;;
45408;SDS011;31162;51.076;3.784;2023-04-25T05:38:11;17.25;;;5.60;;
45408;SDS011;31162;51.076;3.784;2023-04-25T05:40:37;15.73;;;4.45;;
45408;SDS011;31162;51.076;3.784;2023-04-25T05:43:03;11.38;;;4.40;;
45408;SDS011;31162;51.076;3.784;2023-04-25T05:45:28;15.00;;;4.22;;
45408;SDS011;31162;51.076;3.784;2023-04-25T05:47:54;14.00;;;4.50;;
45408;SDS011;31162;51.076;3.784;2023-04-25T05:50:20;15.05;;;5.00;;
45408;SDS011;31162;51.076;3.784;2023-04-25T05:52:46;14.70;;;4.38;;
45408;SDS011;31162;51.076;3.784;2023-04-25T05:55:12;19.00;;;8.15;;
45408;SDS011;31162;51.076;3.784;2023-04-25T05:57:38;14.80;;;6.50;;
45408;SDS011;31162;51.076;3.784;2023-04-25T06:00:06;10.63;;;4.75;;
45408;SDS011;31162;51.076;3.784;2023-04-25T06:02:34;12.77;;;4.93;;
45408;SDS011;31162;51.076;3.784;2023-04-25T06:05:00;15.23;;;5.07;;
45408;SDS011;31162;51.076;3.784;2023-04-25T06:07:28;14.70;;;5.05;;
45408;SDS011;31162;51.076;3.784;2023-04-25T06:09:56;15.10;;;4.25;;
45408;SDS011;31162;51.076;3.784;2023-04-25T06:12:22;15.68;;;4.32;;
45408;SDS011;31162;51.076;3.784;2023-04-25T06:14:47;13.40;;;4.05;;
45408;SDS011;31162;51.076;3.784;2023-04-25T06:17:13;10.52;;;3.25;;
45408;SDS011;31162;51.076;3.784;2023-04-25T06:19:39;8.77;;;3.15;;
45408;SDS011;31162;51.076;3.784;2023-04-25T06:22:04;14.68;;;4.50;;
45408;SDS011;31162;51.076;3.784;2023-04-25T06:24:32;13.60;;;3.40;;
45408;SDS011;31162;51.076;3.784;2023-04-25T06:26:57;9.95;;;2.95;;
45408;SDS011;31162;51.076;3.784;2023-04-25T06:29:23;9.85;;;2.72;;
45408;SDS011;31162;51.076;3.784;2023-04-25T06:31:49;8.35;;;2.92;;
45408;SDS011;31162;51.076;3.784;2023-04-25T06:34:15;10.73;;;2.67;;
45408;SDS011;31162;51.076;3.784;2023-04-25T06:36:41;11.50;;;3.22;;
45408;SDS011;31162;51.076;3.784;2023-04-25T06:39:06;8.65;;;3.17;;
45408;SDS011;31162;51.076;3.784;2023-04-25T06:41:32;10.15;;;2.35;;
45408;SDS011;31162;51.076;3.784;2023-04-25T06:43:58;6.97;;;2.47;;
45408;SDS011;31162;51.076;3.784;2023-04-25T06:46:23;10.05;;;2.40;;
45408;SDS011;31162;51.076;3.784;2023-04-25T06:48:49;7.60;;;2.60;;
45408;SDS011;31162;51.076;3.784;2023-04-25T06:51:15;10.68;;;2.30;;
45408;SDS011;31162;51.076;3.784;2023-04-25T06:53:40;10.45;;;2.50;;
45408;SDS011;31162;51.076;3.784;2023-04-25T06:56:06;6.28;;;2.53;;
45408;SDS011;31162;51.076;3.784;2023-04-25T06:58:35;12.15;;;2.70;;
45408;SDS011;31162;51.076;3.784;2023-04-25T07:01:00;5.95;;;2.00;;
45408;SDS011;31162;51.076;3.784;2023-04-25T07:03:26;9.77;;;2.58;;
45408;SDS011;31162;51.076;3.784;2023-04-25T07:05:52;7.70;;;2.63;;
45408;SDS011;31162;51.076;3.784;2023-04-25T07:08:20;10.82;;;2.25;;
45408;SDS011;31162;51.076;3.784;2023-04-25T07:10:46;8.73;;;2.05;;
45408;SDS011;31162;51.076;3.784;2023-04-25T07:13:12;5.63;;;2.08;;
45408;SDS011;31162;51.076;3.784;2023-04-25T07:15:37;9.98;;;2.00;;
45408;SDS011;31162;51.076;3.784;2023-04-25T07:18:03;5.47;;;2.08;;
45408;SDS011;31162;51.076;3.784;2023-04-25T07:20:29;11.70;;;2.55;;
45408;SDS011;31162;51.076;3.784;2023-04-25T07:22:55;9.50;;;1.90;;
45408;SDS011;31162;51.076;3.784;2023-04-25T07:25:22;5.50;;;2.28;;
45408;SDS011;31162;51.076;3.784;2023-04-25T07:27:47;6.00;;;1.95;;
45408;SDS011;31162;51.076;3.784;2023-04-25T07:30:13;5.05;;;1.65;;
45408;SDS011;31162;51.076;3.784;2023-04-25T07:32:39;7.43;;;2.20;;
45408;SDS011;31162;51.076;3.784;2023-04-25T07:35:05;6.60;;;1.70;;
45408;SDS011;31162;51.076;3.784;2023-04-25T07:37:32;11.38;;;1.75;;
45408;SDS011;31162;51.076;3.784;2023-04-25T07:39:58;6.97;;;1.80;;
45408;SDS011;31162;51.076;3.784;2023-04-25T07:42:24;6.97;;;2.20;;
45408;SDS011;31162;51.076;3.784;2023-04-25T07:44:50;8.73;;;1.95;;
45408;SDS011;31162;51.076;3.784;2023-04-25T07:47:16;7.80;;;2.00;;
45408;SDS011;31162;51.076;3.784;2023-04-25T07:49:44;5.05;;;1.85;;
45408;SDS011;31162;51.076;3.784;2023-04-25T07:52:13;6.45;;;1.50;;
45408;SDS011;31162;51.076;3.784;2023-04-25T07:54:38;5.22;;;1.90;;
45408;SDS011;31162;51.076;3.784;2023-04-25T07:57:04;6.43;;;1.65;;
45408;SDS011;31162;51.076;3.784;2023-04-25T07:59:31;5.25;;;1.83;;
45408;SDS011;31162;51.076;3.784;2023-04-25T08:01:57;6.32;;;1.55;;
45408;SDS011;31162;51.076;3.784;2023-04-25T08:04:23;7.20;;;1.40;;
45408;SDS011;31162;51.076;3.784;2023-04-25T08:06:49;5.05;;;1.50;;
45408;SDS011;31162;51.076;3.784;2023-04-25T08:09:15;7.30;;;1.10;;
45408;SDS011;31162;51.076;3.784;2023-04-25T08:11:40;4.80;;;1.35;;
45408;SDS011;31162;51.076;3.784;2023-04-25T08:14:06;5.00;;;1.55;;
45408;SDS011;31162;51.076;3.784;2023-04-25T08:16:32;4.43;;;1.20;;
45408;SDS011;31162;51.076;3.784;2023-04-25T08:18:59;5.75;;;1.60;;
45408;SDS011;31162;51.076;3.784;2023-04-25T08:21:25;5.07;;;1.48;;
45408;SDS011;31162;51.076;3.784;2023-04-25T08:23:52;4.82;;;1.30;;
45408;SDS011;31162;51.076;3.784;2023-04-25T08:26:20;5.32;;;1.23;;
45408;SDS011;31162;51.076;3.784;2023-04-25T08:28:46;6.65;;;1.30;;
45408;SDS011;31162;51.076;3.784;2023-04-25T08:31:12;3.72;;;1.10;;
45408;SDS011;31162;51.076;3.784;2023-04-25T08:33:40;5.18;;;1.10;;
45408;SDS011;31162;51.076;3.784;2023-04-25T08:36:05;3.33;;;1.10;;
45408;SDS011;31162;51.076;3.784;2023-04-25T08:38:31;3.33;;;0.93;;
45408;SDS011;31162;51.076;3.784;2023-04-25T08:40:57;6.43;;;1.40;;
45408;SDS011;31162;51.076;3.784;2023-04-25T08:43:26;5.28;;;1.20;;
45408;SDS011;31162;51.076;3.784;2023-04-25T08:45:54;4.03;;;1.02;;
45408;SDS011;31162;51.076;3.784;2023-04-25T08:48:25;4.03;;;1.10;;
45408;SDS011;31162;51.076;3.784;2023-04-25T08:50:54;4.80;;;1.20;;
45408;SDS011;31162;51.076;3.784;2023-04-25T08:53:22;3.85;;;1.38;;
45408;SDS011;31162;51.076;3.784;2023-04-25T08:55:51;3.28;;;1.00;;
45408;SDS011;31162;51.076;3.784;2023-04-25T08:58:19;4.55;;;1.02;;
45408;SDS011;31162;51.076;3.784;2023-04-25T09:00:46;5.38;;;1.45;;
45408;SDS011;31162;51.076;3.784;2023-04-25T09:03:13;5.20;;;1.30;;
45408;SDS011;31162;51.076;3.784;2023-04-25T09:05:39;4.40;;;1.33;;
45408;SDS011;31162;51.076;3.784;2023-04-25T09:08:05;5.18;;;1.50;;
45408;SDS011;31162;51.076;3.784;2023-04-25T09:10:32;6.50;;;1.33;;
45408;SDS011;31162;51.076;3.784;2023-04-25T09:13:01;4.85;;;1.20;;
45408;SDS011;31162;51.076;3.784;2023-04-25T09:15:51;4.88;;;1.20;;
45408;SDS011;31162;51.076;3.784;2023-04-25T09:18:25;8.32;;;1.70;;
45408;SDS011;31162;51.076;3.784;2023-04-25T09:20:53;7.25;;;2.20;;
45408;SDS011;31162;51.076;3.784;2023-04-25T09:23:19;6.38;;;1.70;;
45408;SDS011;31162;51.076;3.784;2023-04-25T09:25:50;6.88;;;1.60;;
45408;SDS011;31162;51.076;3.784;2023-04-25T09:28:22;5.97;;;1.33;;
45408;SDS011;31162;51.076;3.784;2023-04-25T09:30:52;7.38;;;1.40;;
45408;SDS011;31162;51.076;3.784;2023-04-25T09:33:21;5.20;;;1.23;;
45408;SDS011;31162;51.076;3.784;2023-04-25T09:36:07;3.65;;;1.52;;
45408;SDS011;31162;51.076;3.784;2023-04-25T09:38:40;5.70;;;1.52;;
45408;SDS011;31162;51.076;3.784;2023-04-25T09:41:07;6.03;;;1.27;;
45408;SDS011;31162;51.076;3.784;2023-04-25T09:43:33;5.03;;;1.10;;
45408;SDS011;31162;51.076;3.784;2023-04-25T09:46:00;5.10;;;1.40;;
45408;SDS011;31162;51.076;3.784;2023-04-25T09:48:26;4.07;;;1.48;;
45408;SDS011;31162;51.076;3.784;2023-04-25T09:53:42;3.38;;;1.13;;
45408;SDS011;31162;51.076;3.784;2023-04-25T09:56:09;6.35;;;0.90;;
45408;SDS011;31162;51.076;3.784;2023-04-25T09:58:39;4.63;;;1.10;;
45408;SDS011;31162;51.076;3.784;2023-04-25T10:01:06;4.10;;;1.20;;
45408;SDS011;31162;51.076;3.784;2023-04-25T10:03:34;5.70;;;1.23;;
45408;SDS011;31162;51.076;3.784;2023-04-25T10:06:02;3.10;;;1.30;;
45408;SDS011;31162;51.076;3.784;2023-04-25T10:08:32;4.80;;;1.40;;
45408;SDS011;31162;51.076;3.784;2023-04-25T10:11:02;4.93;;;1.30;;
45408;SDS011;31162;51.076;3.784;2023-04-25T10:13:30;4.88;;;1.30;;
45408;SDS011;31162;51.076;3.784;2023-04-25T10:16:00;4.47;;;1.10;;
45408;SDS011;31162;51.076;3.784;2023-04-25T10:18:27;3.83;;;1.38;;
45408;SDS011;31162;51.076;3.784;2023-04-25T10:20:54;4.00;;;1.20;;
45408;SDS011;31162;51.076;3.784;2023-04-25T10:23:22;6.45;;;1.45;;
45408;SDS011;31162;51.076;3.784;2023-04-25T10:25:49;3.40;;;1.27;;
45408;SDS011;31162;51.076;3.784;2023-04-25T10:28:16;4.43;;;1.60;;
45408;SDS011;31162;51.076;3.784;2023-04-25T10:30:58;4.63;;;1.00;;
45408;SDS011;31162;51.076;3.784;2023-04-25T10:38:56;6.20;;;1.20;;
45408;SDS011;31162;51.076;3.784;2023-04-25T10:41:31;4.78;;;1.05;;
45408;SDS011;31162;51.076;3.784;2023-04-25T10:44:10;6.45;;;1.15;;
45408;SDS011;31162;51.076;3.784;2023-04-25T10:46:35;4.22;;;1.25;;
45408;SDS011;31162;51.076;3.784;2023-04-25T10:49:01;4.78;;;1.27;;
45408;SDS011;31162;51.076;3.784;2023-04-25T10:51:29;5.60;;;0.93;;
45408;SDS011;31162;51.076;3.784;2023-04-25T11:01:48;4.55;;;1.27;;
45408;SDS011;31162;51.076;3.784;2023-04-25T11:04:23;4.30;;;1.50;;
45408;SDS011;31162;51.076;3.784;2023-04-25T11:06:54;3.70;;;0.98;;
45408;SDS011;31162;51.076;3.784;2023-04-25T11:09:32;2.72;;;0.93;;
45408;SDS011;31162;51.076;3.784;2023-04-25T11:11:59;6.47;;;1.30;;
45408;SDS011;31162;51.076;3.784;2023-04-25T11:14:25;4.95;;;3.08;;
45408;SDS011;31162;51.076;3.784;2023-04-25T11:16:58;7.30;;;2.97;;
45408;SDS011;31162;51.076;3.784;2023-04-25T11:19:25;4.65;;;1.73;;
45408;SDS011;31162;51.076;3.784;2023-04-25T11:21:54;4.82;;;1.42;;
45408;SDS011;31162;51.076;3.784;2023-04-25T11:24:25;4.20;;;1.10;;
45408;SDS011;31162;51.076;3.784;2023-04-25T11:27:01;4.15;;;1.00;;
45408;SDS011;31162;51.076;3.784;2023-04-25T11:29:29;4.55;;;1.05;;
45408;SDS011;31162;51.076;3.784;2023-04-25T11:31:55;4.68;;;1.00;;
45408;SDS011;31162;51.076;3.784;2023-04-25T11:34:23;4.30;;;1.20;;
45408;SDS011;31162;51.076;3.784;2023-04-25T11:36:49;6.78;;;1.00;;
45408;SDS011;31162;51.076;3.784;2023-04-25T11:39:17;3.83;;;1.23;;
45408;SDS011;31162;51.076;3.784;2023-04-25T11:41:43;3.53;;;1.10;;
45408;SDS011;31162;51.076;3.784;2023-04-25T11:44:09;1.98;;;0.68;;
45408;SDS011;31162;51.076;3.784;2023-04-25T11:46:35;2.70;;;0.70;;
45408;SDS011;31162;51.076;3.784;2023-04-25T11:49:01;2.42;;;0.82;;
45408;SDS011;31162;51.076;3.784;2023-04-25T11:51:27;4.15;;;0.80;;
45408;SDS011;31162;51.076;3.784;2023-04-25T11:53:52;8.90;;;1.48;;
45408;SDS011;31162;51.076;3.784;2023-04-25T11:56:18;4.22;;;1.30;;
45408;SDS011;31162;51.076;3.784;2023-04-25T11:58:57;4.50;;;1.13;;
45408;SDS011;31162;51.076;3.784;2023-04-25T12:01:33;3.40;;;0.80;;
45408;SDS011;31162;51.076;3.784;2023-04-25T12:04:12;6.00;;;1.23;;
45408;SDS011;31162;51.076;3.784;2023-04-25T12:06:39;4.95;;;1.50;;
45408;SDS011;31162;51.076;3.784;2023-04-25T12:09:07;3.40;;;0.95;;
45408;SDS011;31162;51.076;3.784;2023-04-25T12:11:41;5.03;;;1.33;;
45408;SDS011;31162;51.076;3.784;2023-04-25T12:14:07;3.70;;;1.27;;
45408;SDS011;31162;51.076;3.784;2023-04-25T12:16:43;5.70;;;1.48;;
45408;SDS011;31162;51.076;3.784;2023-04-25T12:19:13;4.57;;;1.27;;
45408;SDS011;31162;51.076;3.784;2023-04-25T12:21:39;5.63;;;1.40;;
45408;SDS011;31162;51.076;3.784;2023-04-25T12:24:12;7.05;;;1.88;;
45408;SDS011;31162;51.076;3.784;2023-04-25T12:26:46;5.25;;;1.23;;
45408;SDS011;31162;51.076;3.784;2023-04-25T12:29:31;5.65;;;1.00;;
45408;SDS011;31162;51.076;3.784;2023-04-25T12:32:00;6.45;;;1.10;;
45408;SDS011;31162;51.076;3.784;2023-04-25T12:34:27;6.75;;;1.13;;
45408;SDS011;31162;51.076;3.784;2023-04-25T12:36:53;9.98;;;1.25;;
45408;SDS011;31162;51.076;3.784;2023-04-25T12:39:23;4.38;;;1.10;;
45408;SDS011;31162;51.076;3.784;2023-04-25T12:41:52;3.33;;;1.20;;
45408;SDS011;31162;51.076;3.784;2023-04-25T12:44:21;5.95;;;1.10;;
45408;SDS011;31162;51.076;3.784;2023-04-25T12:46:49;5.05;;;1.30;;
45408;SDS011;31162;51.076;3.784;2023-04-25T12:49:15;4.82;;;1.00;;
45408;SDS011;31162;51.076;3.784;2023-04-25T12:51:41;4.75;;;1.10;;
45408;SDS011;31162;51.076;3.784;2023-04-25T12:54:06;2.97;;;1.20;;
45408;SDS011;31162;51.076;3.784;2023-04-25T12:56:33;4.38;;;1.30;;
45408;SDS011;31162;51.076;3.784;2023-04-25T12:58:59;4.57;;;1.00;;
45408;SDS011;31162;51.076;3.784;2023-04-25T13:01:25;6.80;;;1.45;;
45408;SDS011;31162;51.076;3.784;2023-04-25T13:03:51;7.80;;;1.40;;
45408;SDS011;31162;51.076;3.784;2023-04-25T13:06:18;4.05;;;1.08;;
45408;SDS011;31162;51.076;3.784;2023-04-25T13:08:44;4.70;;;1.25;;
45408;SDS011;31162;51.076;3.784;2023-04-25T13:11:39;4.68;;;1.30;;
45408;SDS011;31162;51.076;3.784;2023-04-25T13:14:06;3.00;;;1.20;;
45408;SDS011;31162;51.076;3.784;2023-04-25T13:16:32;5.15;;;1.48;;
45408;SDS011;31162;51.076;3.784;2023-04-25T13:18:58;4.28;;;1.00;;
45408;SDS011;31162;51.076;3.784;2023-04-25T13:21:24;6.32;;;1.30;;
45408;SDS011;31162;51.076;3.784;2023-04-25T13:23:50;7.18;;;1.20;;
45408;SDS011;31162;51.076;3.784;2023-04-25T13:26:18;4.80;;;1.33;;
45408;SDS011;31162;51.076;3.784;2023-04-25T13:28:44;5.40;;;1.20;;
45408;SDS011;31162;51.076;3.784;2023-04-25T13:31:10;3.33;;;0.95;;
45408;SDS011;31162;51.076;3.784;2023-04-25T13:33:36;5.63;;;1.48;;
45408;SDS011;31162;51.076;3.784;2023-04-25T13:36:01;5.88;;;1.40;;
45408;SDS011;31162;51.076;3.784;2023-04-25T13:38:30;6.93;;;1.30;;
45408;SDS011;31162;51.076;3.784;2023-04-25T13:40:55;6.32;;;1.20;;
45408;SDS011;31162;51.076;3.784;2023-04-25T13:43:21;4.43;;;1.27;;
45408;SDS011;31162;51.076;3.784;2023-04-25T13:45:48;4.70;;;1.20;;
45408;SDS011;31162;51.076;3.784;2023-04-25T13:48:14;3.63;;;1.17;;
45408;SDS011;31162;51.076;3.784;2023-04-25T13:50:40;5.43;;;1.27;;
45408;SDS011;31162;51.076;3.784;2023-04-25T13:53:06;6.18;;;1.27;;
45408;SDS011;31162;51.076;3.784;2023-04-25T13:55:32;4.22;;;1.10;;
45408;SDS011;31162;51.076;3.784;2023-04-25T13:57:58;4.75;;;1.52;;
45408;SDS011;31162;51.076;3.784;2023-04-25T14:00:24;4.80;;;1.25;;
45408;SDS011;31162;51.076;3.784;2023-04-25T14:02:50;3.47;;;1.10;;
45408;SDS011;31162;51.076;3.784;2023-04-25T14:05:15;4.70;;;1.10;;
45408;SDS011;31162;51.076;3.784;2023-04-25T14:07:41;2.85;;;1.02;;
45408;SDS011;31162;51.076;3.784;2023-04-25T14:10:07;5.18;;;1.67;;
45408;SDS011;31162;51.076;3.784;2023-04-25T14:12:33;6.90;;;1.20;;
45408;SDS011;31162;51.076;3.784;2023-04-25T14:14:59;3.20;;;0.95;;
45408;SDS011;31162;51.076;3.784;2023-04-25T14:17:25;2.10;;;0.90;;
45408;SDS011;31162;51.076;3.784;2023-04-25T14:19:50;3.47;;;1.20;;
45408;SDS011;31162;51.076;3.784;2023-04-25T14:22:19;4.18;;;1.10;;
45408;SDS011;31162;51.076;3.784;2023-04-25T14:24:47;3.38;;;0.90;;
45408;SDS011;31162;51.076;3.784;2023-04-25T14:27:13;2.25;;;1.00;;
45408;SDS011;31162;51.076;3.784;2023-04-25T14:29:38;2.40;;;0.70;;
45408;SDS011;31162;51.076;3.784;2023-04-25T14:32:04;3.13;;;0.85;;
45408;SDS011;31162;51.076;3.784;2023-04-25T14:34:33;4.40;;;1.02;;
45408;SDS011;31162;51.076;3.784;2023-04-25T14:36:58;6.57;;;1.30;;
45408;SDS011;31162;51.076;3.784;2023-04-25T14:39:25;4.28;;;0.90;;
45408;SDS011;31162;51.076;3.784;2023-04-25T14:41:50;2.72;;;0.98;;
45408;SDS011;31162;51.076;3.784;2023-04-25T14:44:16;4.63;;;1.10;;
45408;SDS011;31162;51.076;3.784;2023-04-25T14:46:42;3.80;;;1.30;;
45408;SDS011;31162;51.076;3.784;2023-04-25T14:49:08;4.07;;;1.08;;
45408;SDS011;31162;51.076;3.784;2023-04-25T14:51:33;3.03;;;1.13;;
45408;SDS011;31162;51.076;3.784;2023-04-25T14:53:59;1.98;;;0.80;;
45408;SDS011;31162;51.076;3.784;2023-04-25T14:56:25;6.80;;;1.55;;